sensor_id;sensor_type;location;lat;lon;timestamp;pressure;altitude;pressure_sealevel;temperature;humidity
55014;BME280;40916;51.632;5.552;2022-12-13T00:00:27;1007.6695856448567;;;-6.612375597778449;0
55014;BME280;40916;51.632;5.552;2022-12-13T00:01:28;1007.6839742128517;;;-6.620706316756486;0
55014;BME280;40916;51.632;5.552;2022-12-13T00:02:27;1007.6316578474934;;;-6.654039090722701;0
55014;BME280;40916;51.632;5.552;2022-12-13T00:03:27;1007.7170772091112;;;-6.670711422301373;0
55014;BME280;40916;51.632;5.552;2022-12-13T00:04:27;1007.6579411461759;;;-6.720752235009481;0
55014;BME280;40916;51.632;5.552;2022-12-13T00:05:27;1007.7280808906138;;;-6.687387721340187;0
55014;BME280;40916;51.632;5.552;2022-12-13T00:06:27;1007.6154329856168;;;-6.720752235009481;0
55014;BME280;40916;51.632;5.552;2022-12-13T00:07:27;1007.6508564516441;;;-6.720752235009481;0
55014;BME280;40916;51.632;5.552;2022-12-13T00:08:28;1007.6899907006687;;;-6.729095848253049;0
55014;BME280;40916;51.632;5.552;2022-12-13T00:09:28;1007.5912957539033;;;-6.754132658189782;0
55014;BME280;40916;51.632;5.552;2022-12-13T00:10:28;1007.6302586639907;;;-6.754132658189782;0
55014;BME280;40916;51.632;5.552;2022-12-13T00:11:28;1007.5777292903302;;;-6.787529017399073;0
55014;BME280;40916;51.632;5.552;2022-12-13T00:12:28;1007.5113560674436;;;-6.84601107205695;0
55014;BME280;40916;51.632;5.552;2022-12-13T00:13:28;1007.6212530686931;;;-6.8543696502716;0
55014;BME280;40916;51.632;5.552;2022-12-13T00:14:28;1007.49774019387;;;-6.887813977266305;0
55014;BME280;40916;51.632;5.552;2022-12-13T00:15:28;1007.6069727013206;;;-6.84601107205695;0
55014;BME280;40916;51.632;5.552;2022-12-13T00:16:28;1007.595980472843;;;-6.820941339214318;0
55014;BME280;40916;51.632;5.552;2022-12-13T00:17:30;1007.5921750535288;;;-6.804233181317585;0
55014;BME280;40916;51.632;5.552;2022-12-13T00:18:29;1007.5386235815465;;;-6.779178432141617;0
55014;BME280;40916;51.632;5.552;2022-12-13T00:19:29;1007.5065966812257;;;-6.7708288441311275;0
55014;BME280;40916;51.632;5.552;2022-12-13T00:20:29;1007.5837222725589;;;-6.729095848253049;0
55014;BME280;40916;51.632;5.552;2022-12-13T00:21:30;1007.5902851061134;;;-6.704067991141034;0
55014;BME280;40916;51.632;5.552;2022-12-13T00:22:29;1007.4664783382609;;;-6.712409616110069;0
55014;BME280;40916;51.632;5.552;2022-12-13T00:23:29;1007.5261521509127;;;-6.687387721340187;0
55014;BME280;40916;51.632;5.552;2022-12-13T00:24:29;1007.4836408830573;;;-6.687387721340187;0
55014;BME280;40916;51.632;5.552;2022-12-13T00:25:29;1007.5291150848435;;;-6.662374760785745;0
55014;BME280;40916;51.632;5.552;2022-12-13T00:26:30;1007.5009700454808;;;-6.670711422301373;0
55014;BME280;40916;51.632;5.552;2022-12-13T00:27:29;1007.5076573760198;;;-6.654039090722701;0
55014;BME280;40916;51.632;5.552;2022-12-13T00:28:30;1007.6029057424688;;;-6.637370723305935;0
55014;BME280;40916;51.632;5.552;2022-12-13T00:29:30;1007.5776801524945;;;-6.620706316756486;0
55014;BME280;40916;51.632;5.552;2022-12-13T00:30:30;1007.5878708640001;;;-6.60404586778343;0
55014;BME280;40916;51.632;5.552;2022-12-13T00:31:30;1007.5878708640001;;;-6.60404586778343;0
55014;BME280;40916;51.632;5.552;2022-12-13T00:32:30;1007.5309527972654;;;-6.595717126360626;0
55014;BME280;40916;51.632;5.552;2022-12-13T00:33:30;1007.5659248669174;;;-6.57906260758962;0
55014;BME280;40916;51.632;5.552;2022-12-13T00:34:30;1007.4884328539935;;;-6.595717126360626;0
55014;BME280;40916;51.632;5.552;2022-12-13T00:35:30;1007.5836421767298;;;-6.57906260758962;0
55014;BME280;40916;51.632;5.552;2022-12-13T00:36:30;1007.5838742743454;;;-6.5873893730994695;0
55014;BME280;40916;51.632;5.552;2022-12-13T00:37:30;1007.6046676264533;;;-6.570736829420962;0
55014;BME280;40916;51.632;5.552;2022-12-13T00:38:31;1007.5661572927912;;;-6.5873893730994695;0
55014;BME280;40916;51.632;5.552;2022-12-13T00:39:31;1007.5096928236388;;;-6.595717126360626;0
55014;BME280;40916;51.632;5.552;2022-12-13T00:40:31;1007.5174468958016;;;-6.620706316756486;0
55014;BME280;40916;51.632;5.552;2022-12-13T00:41:32;1007.4861952494591;;;-6.645704411700077;0
55014;BME280;40916;51.632;5.552;2022-12-13T00:42:31;1007.5747686271452;;;-6.645704411700077;0
55014;BME280;40916;51.632;5.552;2022-12-13T00:43:31;1007.5539147129248;;;-6.662374760785745;0
55014;BME280;40916;51.632;5.552;2022-12-13T00:44:31;1007.4800982781211;;;-6.687387721340187;0
55014;BME280;40916;51.632;5.552;2022-12-13T00:45:31;1007.4345966781482;;;-6.712409616110069;0
55014;BME280;40916;51.632;5.552;2022-12-13T00:46:31;1007.4985356261473;;;-6.720752235009481;0
55014;BME280;40916;51.632;5.552;2022-12-13T00:47:31;1007.3897124621254;;;-6.7708288441311275;0
55014;BME280;40916;51.632;5.552;2022-12-13T00:48:32;1007.5595732902527;;;-6.762480252952233;0
55014;BME280;40916;51.632;5.552;2022-12-13T00:49:32;1007.5033511279029;;;-6.787529017399073;0
55014;BME280;40916;51.632;5.552;2022-12-13T00:50:32;1007.4962674959273;;;-6.787529017399073;0
55014;BME280;40916;51.632;5.552;2022-12-13T00:51:32;1007.4679329724453;;;-6.787529017399073;0
55014;BME280;40916;51.632;5.552;2022-12-13T00:52:32;1007.4818030489364;;;-6.7708288441311275;0
55014;BME280;40916;51.632;5.552;2022-12-13T00:53:32;1007.5558749381546;;;-6.754132658189782;0
55014;BME280;40916;51.632;5.552;2022-12-13T00:54:32;1007.5558749381546;;;-6.754132658189782;0
55014;BME280;40916;51.632;5.552;2022-12-13T00:55:32;1007.517069114283;;;-6.762480252952233;0
55014;BME280;40916;51.632;5.552;2022-12-13T00:56:33;1007.3439695153594;;;-6.787529017399073;0
55014;BME280;40916;51.632;5.552;2022-12-13T00:57:32;1007.3401252540145;;;-6.7708288441311275;0
55014;BME280;40916;51.632;5.552;2022-12-13T00:58:33;1007.566010877545;;;-6.729095848253049;0
55014;BME280;40916;51.632;5.552;2022-12-13T00:59:33;1007.435444247273;;;-6.754132658189782;0
55014;BME280;40916;51.632;5.552;2022-12-13T01:00:33;1007.5452486955851;;;-6.754132658189782;0
55014;BME280;40916;51.632;5.552;2022-12-13T01:01:33;1007.5384742164111;;;-6.7708288441311275;0
55014;BME280;40916;51.632;5.552;2022-12-13T01:02:33;1007.4228222189907;;;-6.84601107205695;0
55014;BME280;40916;51.632;5.552;2022-12-13T01:03:33;1007.5011787083706;;;-6.879451392561357;0
55014;BME280;40916;51.632;5.552;2022-12-13T01:04:33;1007.3638140898163;;;-6.946380168363625;0
55014;BME280;40916;51.632;5.552;2022-12-13T01:05:33;1007.417135580175;;;-6.9714950402047045;0
55014;BME280;40916;51.632;5.552;2022-12-13T01:06:34;1007.4881188578647;;;-6.996618973829889;0
55014;BME280;40916;51.632;5.552;2022-12-13T01:07:33;1007.3961768759793;;;-7.013373302853054;0
55014;BME280;40916;51.632;5.552;2022-12-13T01:08:33;1007.4847217088396;;;-7.021751980611555;0
55014;BME280;40916;51.632;5.552;2022-12-13T01:09:34;1007.3645386053573;;;-7.063660518765875;0
55014;BME280;40916;51.632;5.552;2022-12-13T01:10:34;1007.4671326680028;;;-7.046894071941104;0
55014;BME280;40916;51.632;5.552;2022-12-13T01:11:34;1007.4529400793266;;;-7.038512364733087;0
55014;BME280;40916;51.632;5.552;2022-12-13T01:12:34;1007.4599419267502;;;-7.021751980611555;0
55014;BME280;40916;51.632;5.552;2022-12-13T01:13:34;1007.5271581552187;;;-7.013373302853054;0
55014;BME280;40916;51.632;5.552;2022-12-13T01:14:34;1007.5235711717424;;;-7.004995634066468;0
55014;BME280;40916;51.632;5.552;2022-12-13T01:15:34;1007.4633376884185;;;-6.996618973829889;0
55014;BME280;40916;51.632;5.552;2022-12-13T01:16:34;1007.4349007347136;;;-6.979868677320326;0
55014;BME280;40916;51.632;5.552;2022-12-13T01:17:34;1007.4063757179235;;;-6.954750786146967;0
55014;BME280;40916;51.632;5.552;2022-12-13T01:18:35;1007.466564147192;;;-6.954750786146967;0
55014;BME280;40916;51.632;5.552;2022-12-13T01:19:35;1007.3960178455071;;;-6.988243321721654;0
55014;BME280;40916;51.632;5.552;2022-12-13T01:20:35;1007.2970560083565;;;-7.013373302853054;0
55014;BME280;40916;51.632;5.552;2022-12-13T01:21:35;1007.3818569240192;;;-6.988243321721654;0
55014;BME280;40916;51.632;5.552;2022-12-13T01:22:35;1007.4243396937817;;;-6.988243321721654;0
55014;BME280;40916;51.632;5.552;2022-12-13T01:23:35;1007.4171992470309;;;-6.979868677320326;0
55014;BME280;40916;51.632;5.552;2022-12-13T01:24:35;1007.4277566704473;;;-6.9714950402047045;0
55014;BME280;40916;51.632;5.552;2022-12-13T01:25:35;1007.4417806724522;;;-6.954750786146967;0
55014;BME280;40916;51.632;5.552;2022-12-13T01:26:35;1007.4168441102249;;;-6.938010556183539;0
55014;BME280;40916;51.632;5.552;2022-12-13T01:27:35;1007.4414616281349;;;-6.921274346953268;0
55014;BME280;40916;51.632;5.552;2022-12-13T01:28:36;1007.3778144307363;;;-6.929641949186685;0
55014;BME280;40916;51.632;5.552;2022-12-13T01:29:36;1007.4129529272356;;;-6.904542155098749;0
55014;BME280;40916;51.632;5.552;2022-12-13T01:30:36;1007.3493112454871;;;-6.912907749063731;0
55014;BME280;40916;51.632;5.552;2022-12-13T01:31:36;1007.4023302551407;;;-6.904542155098749;0
55014;BME280;40916;51.632;5.552;2022-12-13T01:32:36;1007.5087360854644;;;-6.921274346953268;0
55014;BME280;40916;51.632;5.552;2022-12-13T01:33:36;1007.4345472474844;;;-6.938010556183539;0
55014;BME280;40916;51.632;5.552;2022-12-13T01:34:36;1007.3919771993075;;;-6.929641949186685;0
55014;BME280;40916;51.632;5.552;2022-12-13T01:35:36;1007.3140819940302;;;-6.929641949186685;0
55014;BME280;40916;51.632;5.552;2022-12-13T01:36:37;1007.4413726791928;;;-6.912907749063731;0
55014;BME280;40916;51.632;5.552;2022-12-13T01:37:36;1007.3493112454871;;;-6.912907749063731;0
55014;BME280;40916;51.632;5.552;2022-12-13T01:38:37;1007.3917075840396;;;-6.904542155098749;0
55014;BME280;40916;51.632;5.552;2022-12-13T01:39:37;1007.363380465963;;;-6.904542155098749;0
55014;BME280;40916;51.632;5.552;2022-12-13T01:40:41;1007.3841023794723;;;-6.862729229482049;0
55014;BME280;40916;51.632;5.552;2022-12-13T01:41:37;1007.4052344099592;;;-6.8543696502716;0
55014;BME280;40916;51.632;5.552;2022-12-13T01:42:37;1007.443822895455;;;-6.829296916945424;0
55014;BME280;40916;51.632;5.552;2022-12-13T01:43:54;1007.4863207230638;;;-6.829296916945424;0
55014;BME280;40916;51.632;5.552;2022-12-13T01:44:57;1007.4299049243263;;;-6.84601107205695;0
55014;BME280;40916;51.632;5.552;2022-12-13T01:45:37;1007.4585786501846;;;-6.8710898101059925;0
55014;BME280;40916;51.632;5.552;2022-12-13T01:46:37;1007.4306573829358;;;-6.904542155098749;0
55014;BME280;40916;51.632;5.552;2022-12-13T01:47:38;1007.4484543310316;;;-6.912907749063731;0
55014;BME280;40916;51.632;5.552;2022-12-13T01:48:40;1007.3070847208305;;;-6.938010556183539;0
55014;BME280;40916;51.632;5.552;2022-12-13T01:49:38;1007.4556246684704;;;-6.921274346953268;0
55014;BME280;40916;51.632;5.552;2022-12-13T01:50:39;1007.4555359833121;;;-6.912907749063731;0
55014;BME280;40916;51.632;5.552;2022-12-13T01:51:38;1007.444820949484;;;-6.904542155098749;0
55014;BME280;40916;51.632;5.552;2022-12-13T01:52:38;1007.3987893646632;;;-6.904542155098749;0
55014;BME280;40916;51.632;5.552;2022-12-13T01:53:38;1007.3707330471133;;;-6.929641949186685;0
55014;BME280;40916;51.632;5.552;2022-12-13T01:54:39;1007.4840352380868;;;-6.929641949186685;0
55014;BME280;40916;51.632;5.552;2022-12-13T01:55:38;1007.4982785644765;;;-6.938010556183539;0
55014;BME280;40916;51.632;5.552;2022-12-13T01:56:39;1007.3713468648502;;;-7.004995634066468;0
55014;BME280;40916;51.632;5.552;2022-12-13T01:57:39;1007.4069222184439;;;-7.038512364733087;0
55014;BME280;40916;51.632;5.552;2022-12-13T01:58:38;1007.4211727829329;;;-7.063660518765875;0
55014;BME280;40916;51.632;5.552;2022-12-13T01:59:39;1007.3717077976515;;;-7.1223749674175885;0
55014;BME280;40916;51.632;5.552;2022-12-13T02:00:39;1007.3397914244842;;;-7.172741196844203;0
55014;BME280;40916;51.632;5.552;2022-12-13T02:01:39;1007.3750597474697;;;-7.206339018112249;0
55014;BME280;40916;51.632;5.552;2022-12-13T02:02:39;1007.381903156582;;;-7.248359219584788;0
55014;BME280;40916;51.632;5.552;2022-12-13T02:03:39;1007.3926227049603;;;-7.23154807935008;0
55014;BME280;40916;51.632;5.552;2022-12-13T02:04:39;1007.4457453268599;;;-7.22314403948365;0
55014;BME280;40916;51.632;5.552;2022-12-13T02:05:40;1007.4174382827819;;;-7.22314403948365;0
55014;BME280;40916;51.632;5.552;2022-12-13T02:06:40;1007.5059847361744;;;-7.206339018112249;0
55014;BME280;40916;51.632;5.552;2022-12-13T02:07:39;1007.4563604702089;;;-7.22314403948365;0
55014;BME280;40916;51.632;5.552;2022-12-13T02:08:39;1007.4953691909249;;;-7.206339018112249;0
55014;BME280;40916;51.632;5.552;2022-12-13T02:09:39;1007.5094815864132;;;-7.214741019213651;0
55014;BME280;40916;51.632;5.552;2022-12-13T02:10:40;1007.4101501814436;;;-7.256766320809934;0
55014;BME280;40916;51.632;5.552;2022-12-13T02:11:40;1007.3534144565095;;;-7.273583587619804;0
55014;BME280;40916;51.632;5.552;2022-12-13T02:12:40;1007.4170283908375;;;-7.281993754062839;0
55014;BME280;40916;51.632;5.552;2022-12-13T02:13:40;1007.4452577301756;;;-7.2904049431038835;0
55014;BME280;40916;51.632;5.552;2022-12-13T02:14:40;1007.4380231086557;;;-7.307230390699274;0
55014;BME280;40916;51.632;5.552;2022-12-13T02:15:42;1007.3739863175441;;;-7.340893575991682;0
55014;BME280;40916;51.632;5.552;2022-12-13T02:16:43;1007.3881361221923;;;-7.340893575991682;0
55014;BME280;40916;51.632;5.552;2022-12-13T02:17:45;1007.3387062261176;;;-7.332476242329221;0
55014;BME280;40916;51.632;5.552;2022-12-13T02:18:45;1007.3211089900133;;;-7.324059933846936;0
55014;BME280;40916;51.632;5.552;2022-12-13T02:19:49;1007.3992656770362;;;-7.2904049431038835;0
55014;BME280;40916;51.632;5.552;2022-12-13T02:20:45;1007.4275684767632;;;-7.2904049431038835;0
55014;BME280;40916;51.632;5.552;2022-12-13T02:21:42;1007.3849573485991;;;-7.307230390699274;0
55014;BME280;40916;51.632;5.552;2022-12-13T02:22:46;1007.395398234687;;;-7.324059933846936;0
55014;BME280;40916;51.632;5.552;2022-12-13T02:24:47;1007.3416207591825;;;-7.382995637107282;0
55014;BME280;40916;51.632;5.552;2022-12-13T02:25:45;1007.3802899949405;;;-7.399843652925586;0
55014;BME280;40916;51.632;5.552;2022-12-13T02:27:13;1007.3339250435885;;;-7.425123392511043;0
55014;BME280;40916;51.632;5.552;2022-12-13T02:27:47;1007.3690167342725;;;-7.441981701196212;0
55014;BME280;40916;51.632;5.552;2022-12-13T02:28:46;1007.368574305242;;;-7.467276896346217;0
55014;BME280;40916;51.632;5.552;2022-12-13T02:29:49;1007.3928518389196;;;-7.492581380474967;0
55014;BME280;40916;51.632;5.552;2022-12-13T02:30:42;1007.3645617902185;;;-7.492581380474967;0
55014;BME280;40916;51.632;5.552;2022-12-13T02:31:42;1007.3076476552907;;;-7.509456202908275;0
55014;BME280;40916;51.632;5.552;2022-12-13T02:32:43;1007.3192142479303;;;-7.458844133100683;0
55014;BME280;40916;51.632;5.552;2022-12-13T02:33:44;1007.3451578774694;;;-7.382995637107282;0
55014;BME280;40916;51.632;5.552;2022-12-13T02:34:43;1007.3029336346023;;;-7.366151732373378;0
55014;BME280;40916;51.632;5.552;2022-12-13T02:35:43;1007.3783071516992;;;-7.256766320809934;0
55014;BME280;40916;51.632;5.552;2022-12-13T02:36:45;1007.414080706661;;;-7.181139125544821;0
55014;BME280;40916;51.632;5.552;2022-12-13T02:37:45;1007.4637040179094;;;-7.0888177763746505;0
55014;BME280;40916;51.632;5.552;2022-12-13T02:38:43;1007.3892230461481;;;-7.038512364733087;0
55014;BME280;40916;51.632;5.552;2022-12-13T02:39:43;1007.3499336190087;;;-6.979868677320326;0
55014;BME280;40916;51.632;5.552;2022-12-13T02:40:43;1007.4379208683271;;;-6.921274346953268;0
55014;BME280;40916;51.632;5.552;2022-12-13T02:41:43;1007.3772405771543;;;-6.879451392561357;0
55014;BME280;40916;51.632;5.552;2022-12-13T02:42:43;1007.3449124894638;;;-6.84601107205695;0
55014;BME280;40916;51.632;5.552;2022-12-13T02:43:44;1007.3867573827548;;;-6.804233181317585;0
55014;BME280;40916;51.632;5.552;2022-12-13T02:44:44;1007.3151744957412;;;-6.762480252952233;0
55014;BME280;40916;51.632;5.552;2022-12-13T02:45:43;1007.3322207223191;;;-6.729095848253049;0
55014;BME280;40916;51.632;5.552;2022-12-13T02:46:45;1007.2852551768761;;;-6.687387721340187;0
55014;BME280;40916;51.632;5.552;2022-12-13T02:47:43;1007.337599806809;;;-6.654039090722701;0
55014;BME280;40916;51.632;5.552;2022-12-13T02:48:43;1007.3092569033729;;;-6.654039090722701;0
55014;BME280;40916;51.632;5.552;2022-12-13T02:49:44;1007.2911218998295;;;-6.637370723305935;0
55014;BME280;40916;51.632;5.552;2022-12-13T02:50:43;1007.3163426285685;;;-6.654039090722701;0
55014;BME280;40916;51.632;5.552;2022-12-13T02:51:43;1007.2638050680434;;;-6.679049075681981;0
55014;BME280;40916;51.632;5.552;2022-12-13T02:52:43;1007.2218681159972;;;-6.704067991141034;0
55014;BME280;40916;51.632;5.552;2022-12-13T02:53:43;1007.2966222887517;;;-6.720752235009481;0
55014;BME280;40916;51.632;5.552;2022-12-13T02:54:43;1007.1808939590329;;;-6.779178432141617;0
55014;BME280;40916;51.632;5.552;2022-12-13T02:55:43;1007.2346056230434;;;-6.81258676081055;0
55014;BME280;40916;51.632;5.552;2022-12-13T02:56:51;1007.2420877371977;;;-6.8376534944206355;0
55014;BME280;40916;51.632;5.552;2022-12-13T02:57:44;1007.2350049118137;;;-6.8376534944206355;0
55014;BME280;40916;51.632;5.552;2022-12-13T02:58:44;1007.2171680835504;;;-6.829296916945424;0
55014;BME280;40916;51.632;5.552;2022-12-13T02:59:44;1007.2064100267482;;;-6.820941339214318;0
55014;BME280;40916;51.632;5.552;2022-12-13T03:00:47;1007.223548000945;;;-6.787529017399073;0
55014;BME280;40916;51.632;5.552;2022-12-13T03:01:48;1007.1272839434638;;;-6.754132658189782;0
55014;BME280;40916;51.632;5.552;2022-12-13T03:02:47;1007.2149677073222;;;-6.712409616110069;0
55014;BME280;40916;51.632;5.552;2022-12-13T03:03:45;1007.2037754336965;;;-6.687387721340187;0
55014;BME280;40916;51.632;5.552;2022-12-13T03:04:48;1007.1750387079171;;;-6.670711422301373;0
55014;BME280;40916;51.632;5.552;2022-12-13T03:05:45;1007.103979445898;;;-6.662374760785745;0
55014;BME280;40916;51.632;5.552;2022-12-13T03:06:47;1007.1071019737784;;;-6.645704411700077;0
55014;BME280;40916;51.632;5.552;2022-12-13T03:07:47;1007.1657542469993;;;-6.5873893730994695;0
55014;BME280;40916;51.632;5.552;2022-12-13T03:08:46;1007.1336233643034;;;-6.57906260758962;0
55014;BME280;40916;51.632;5.552;2022-12-13T03:09:47;1007.0445421795413;;;-6.562412038183606;0
55014;BME280;40916;51.632;5.552;2022-12-13T03:10:48;1007.1288231211175;;;-6.537443581963878;0
55014;BME280;40916;51.632;5.552;2022-12-13T03:11:51;1007.0936446140064;;;-6.545765414864388;0
55014;BME280;40916;51.632;5.552;2022-12-13T03:12:47;1007.0931225000642;;;-6.52912273435739;0
55014;BME280;40916;51.632;5.552;2022-12-13T03:13:47;1007.096399928747;;;-6.52080287163616;0
55014;BME280;40916;51.632;5.552;2022-12-13T03:14:45;1007.0715925863757;;;-6.52080287163616;0
55014;BME280;40916;51.632;5.552;2022-12-13T03:15:46;1007.1460146297518;;;-6.52080287163616;0
55014;BME280;40916;51.632;5.552;2022-12-13T03:16:45;1007.1323668974013;;;-6.537443581963878;0
55014;BME280;40916;51.632;5.552;2022-12-13T03:17:46;1007.1498239658972;;;-6.52912273435739;0
55014;BME280;40916;51.632;5.552;2022-12-13T03:18:45;1007.1040166902286;;;-6.537443581963878;0
55014;BME280;40916;51.632;5.552;2022-12-13T03:19:45;1007.1533678084521;;;-6.52912273435739;0
55014;BME280;40916;51.632;5.552;2022-12-13T03:20:46;1007.1637341710798;;;-6.52080287163616;0
55014;BME280;40916;51.632;5.552;2022-12-13T03:21:46;1007.1173937386792;;;-6.512483993391665;0
55014;BME280;40916;51.632;5.552;2022-12-13T03:22:46;1007.1525608853884;;;-6.504166099215595;0
55014;BME280;40916;51.632;5.552;2022-12-13T03:23:46;1007.032063610122;;;-6.504166099215595;0
55014;BME280;40916;51.632;5.552;2022-12-13T03:24:46;1007.1918171897057;;;-6.512483993391665;0
55014;BME280;40916;51.632;5.552;2022-12-13T03:25:46;1007.0645047752653;;;-6.52080287163616;0
55014;BME280;40916;51.632;5.552;2022-12-13T03:26:46;1007.1604554938938;;;-6.52912273435739;0
55014;BME280;40916;51.632;5.552;2022-12-13T03:27:46;1007.0832693165759;;;-6.554088233467894;0
55014;BME280;40916;51.632;5.552;2022-12-13T03:28:47;1007.0526043536332;;;-6.595717126360626;0
55014;BME280;40916;51.632;5.552;2022-12-13T03:29:46;1007.0776417968857;;;-6.60404586778343;0
55014;BME280;40916;51.632;5.552;2022-12-13T03:30:46;1007.1071019737784;;;-6.645704411700077;0
55014;BME280;40916;51.632;5.552;2022-12-13T03:31:47;1007.104385305525;;;-6.679049075681981;0
55014;BME280;40916;51.632;5.552;2022-12-13T03:32:47;1007.1224892591532;;;-6.695727359688842;0
55014;BME280;40916;51.632;5.552;2022-12-13T03:33:47;1007.1903522554152;;;-6.720752235009481;0
55014;BME280;40916;51.632;5.552;2022-12-13T03:34:47;1007.1449942830967;;;-6.754132658189782;0
55014;BME280;40916;51.632;5.552;2022-12-13T03:35:47;1007.1417766381591;;;-6.7708288441311275;0
55014;BME280;40916;51.632;5.552;2022-12-13T03:36:47;1007.1103602470364;;;-6.795880600319119;0
55014;BME280;40916;51.632;5.552;2022-12-13T03:37:47;1007.223548000945;;;-6.787529017399073;0
55014;BME280;40916;51.632;5.552;2022-12-13T03:38:48;1007.1636317132107;;;-6.804233181317585;0
55014;BME280;40916;51.632;5.552;2022-12-13T03:39:47;1007.1564028503549;;;-6.795880600319119;0
55014;BME280;40916;51.632;5.552;2022-12-13T03:40:48;1007.1949056977118;;;-6.7708288441311275;0
55014;BME280;40916;51.632;5.552;2022-12-13T03:41:48;1007.1414522149491;;;-6.754132658189782;0
55014;BME280;40916;51.632;5.552;2022-12-13T03:42:48;1007.1797252575527;;;-6.720752235009481;0
55014;BME280;40916;51.632;5.552;2022-12-13T03:43:48;1007.1862547805114;;;-6.695727359688842;0
55014;BME280;40916;51.632;5.552;2022-12-13T03:44:48;1007.199428219393;;;-6.654039090722701;0
55014;BME280;40916;51.632;5.552;2022-12-13T03:45:48;1007.1354453524751;;;-6.645704411700077;0
55014;BME280;40916;51.632;5.552;2022-12-13T03:46:48;1007.2231430400957;;;-6.612375597778449;0
55014;BME280;40916;51.632;5.552;2022-12-13T03:47:48;1007.1272472999995;;;-6.60404586778343;0
55014;BME280;40916;51.632;5.552;2022-12-13T03:48:49;1007.0700829318072;;;-6.5873893730994695;0
55014;BME280;40916;51.632;5.552;2022-12-13T03:49:49;1007.1473059505865;;;-6.562412038183606;0
55014;BME280;40916;51.632;5.552;2022-12-13T03:50:49;1007.0799779521526;;;-6.562412038183606;0
55014;BME280;40916;51.632;5.552;2022-12-13T03:51:49;1007.1397128469531;;;-6.545765414864388;0
55014;BME280;40916;51.632;5.552;2022-12-13T03:52:49;1007.1670093672759;;;-6.512483993391665;0
55014;BME280;40916;51.632;5.552;2022-12-13T03:53:49;1007.1637341710798;;;-6.52080287163616;0
55014;BME280;40916;51.632;5.552;2022-12-13T03:54:49;1007.1146480170887;;;-6.537443581963878;0
55014;BME280;40916;51.632;5.552;2022-12-13T03:55:49;1007.1187057576459;;;-6.554088233467894;0
55014;BME280;40916;51.632;5.552;2022-12-13T03:56:49;1007.1614802711342;;;-6.562412038183606;0
55014;BME280;40916;51.632;5.552;2022-12-13T03:57:49;1007.2285587952564;;;-6.554088233467894;0
55014;BME280;40916;51.632;5.552;2022-12-13T03:58:49;1007.1085747137912;;;-6.570736829420962;0
55014;BME280;40916;51.632;5.552;2022-12-13T03:59:50;1007.05137652907;;;-6.554088233467894;0
55014;BME280;40916;51.632;5.552;2022-12-13T04:00:50;1007.1779098061334;;;-6.52080287163616;0
55014;BME280;40916;51.632;5.552;2022-12-13T04:01:50;1007.107560465738;;;-6.537443581963878;0
55014;BME280;40916;51.632;5.552;2022-12-13T04:02:50;1007.0159401090161;;;-6.554088233467894;0
55014;BME280;40916;51.632;5.552;2022-12-13T04:03:50;1007.0511201078785;;;-6.545765414864388;0
55014;BME280;40916;51.632;5.552;2022-12-13T04:04:50;1007.1037540227508;;;-6.52912273435739;0
55014;BME280;40916;51.632;5.552;2022-12-13T04:05:50;1007.121207276539;;;-6.52080287163616;0
55014;BME280;40916;51.632;5.552;2022-12-13T04:06:50;1007.0794697768606;;;-6.545765414864388;0
55014;BME280;40916;51.632;5.552;2022-12-13T04:07:50;1007.0715925863757;;;-6.52080287163616;0
55014;BME280;40916;51.632;5.552;2022-12-13T04:08:51;1006.966329139523;;;-6.554088233467894;0
55014;BME280;40916;51.632;5.552;2022-12-13T04:09:51;1006.9693533028387;;;-6.537443581963878;0
55014;BME280;40916;51.632;5.552;2022-12-13T04:10:51;1007.0784100457079;;;-6.512483993391665;0
55014;BME280;40916;51.632;5.552;2022-12-13T04:11:51;1007.0781360826221;;;-6.504166099215595;0
55014;BME280;40916;51.632;5.552;2022-12-13T04:12:51;1007.109474847279;;;-6.487533261436663;0
55014;BME280;40916;51.632;5.552;2022-12-13T04:13:51;1007.0527681540783;;;-6.487533261436663;0
55014;BME280;40916;51.632;5.552;2022-12-13T04:14:51;1007.085224156974;;;-6.504166099215595;0